Time;durP1;ratioP1;P1;durP2;ratioP2;P2;SDS_P1;SDS_P2;PMS_P1;PMS_P2;Temp;Humidity;BMP_temperature;BMP_pressure;BME280_temperature;BME280_humidity;BME280_pressure;Samples;Min_cycle;Max_cycle;Signal;HPM_P1;HPM_P2
2022/11/27 00:00:54;;;;;;;25.27;17.75;;;10.60;1.00;;;;;;5026072;28;20044;-69
2022/11/27 00:03:19;;;;;;;25.77;18.20;;;10.60;1.00;;;;;;5035500;28;20376;-69
2022/11/27 00:05:55;;;;;;;24.92;17.45;;;10.50;1.00;;;;;;5035458;28;20029;-69
2022/11/27 00:08:36;;;;;;;23.67;17.52;;;10.50;1.00;;;;;;5035977;28;20418;-69
2022/11/27 00:11:11;;;;;;;22.65;16.70;;;10.50;1.00;;;;;;5007773;28;20053;-70
2022/11/27 00:13:37;;;;;;;20.38;16.48;;;10.50;1.00;;;;;;5034186;28;20028;-69
2022/11/27 00:16:04;;;;;;;24.33;15.73;;;10.50;1.00;;;;;;5026175;28;20128;-69
2022/11/27 00:18:29;;;;;;;18.98;15.77;;;10.50;1.00;;;;;;5020990;28;20080;-69
2022/11/27 00:20:55;;;;;;;22.73;15.30;;;10.50;1.00;;;;;;5017960;28;20042;-69
2022/11/27 00:23:21;;;;;;;17.73;14.52;;;10.40;1.00;;;;;;5028724;28;20143;-70
2022/11/27 00:25:52;;;;;;;18.33;13.93;;;10.40;1.00;;;;;;5034999;28;20138;-70
2022/11/27 00:28:19;;;;;;;20.38;14.75;;;10.40;1.00;;;;;;5034992;28;20076;-70
2022/11/27 00:30:45;;;;;;;19.85;14.38;;;10.40;1.00;;;;;;5026655;28;20514;-70
2022/11/27 00:33:10;;;;;;;18.92;14.35;;;10.40;1.00;;;;;;5035281;28;20029;-69
2022/11/27 00:35:38;;;;;;;20.25;14.82;;;10.40;1.00;;;;;;5034883;28;20380;-69
2022/11/27 00:38:04;;;;;;;17.77;14.60;;;10.40;1.00;;;;;;5034718;28;20120;-69
2022/11/27 00:40:30;;;;;;;18.52;14.57;;;10.40;1.00;;;;;;5028183;28;20053;-69
2022/11/27 00:42:55;;;;;;;20.73;14.45;;;10.40;1.00;;;;;;5034779;28;20455;-69
2022/11/27 00:45:21;;;;;;;19.65;14.65;;;10.30;1.00;;;;;;5034732;28;20104;-69
2022/11/27 00:47:47;;;;;;;19.52;16.20;;;10.30;1.00;;;;;;5021651;28;20117;-69
2022/11/27 00:50:12;;;;;;;20.92;14.10;;;10.40;1.00;;;;;;5031176;28;20063;-69
2022/11/27 00:52:38;;;;;;;21.52;14.38;;;10.30;1.00;;;;;;5033665;28;20467;-70
2022/11/27 00:55:04;;;;;;;19.15;14.02;;;10.30;1.00;;;;;;5029308;28;20089;-69
2022/11/27 00:57:30;;;;;;;21.13;14.60;;;10.20;1.00;;;;;;5025296;28;20022;-69
2022/11/27 00:59:55;;;;;;;17.33;14.07;;;10.30;1.00;;;;;;5018724;28;20498;-69
2022/11/27 01:02:21;;;;;;;19.05;14.05;;;10.30;1.00;;;;;;5033247;28;20048;-69
2022/11/27 01:08:08;;;;;;;26.50;14.27;;;10.30;1.00;;;;;;5009155;28;20565;-70
2022/11/27 01:10:34;;;;;;;19.33;14.68;;;10.20;1.00;;;;;;5032773;28;20468;-69
2022/11/27 01:12:59;;;;;;;18.23;12.95;;;10.20;1.00;;;;;;5031451;28;20026;-69
2022/11/27 01:15:25;;;;;;;15.85;13.27;;;10.20;1.00;;;;;;5033080;28;20509;-69
2022/11/27 01:17:51;;;;;;;18.38;13.00;;;10.20;1.00;;;;;;5026993;28;20080;-70
2022/11/27 01:20:16;;;;;;;17.00;13.60;;;10.20;1.00;;;;;;5025161;28;20345;-69
2022/11/27 01:22:42;;;;;;;15.60;12.18;;;10.20;1.00;;;;;;5031537;28;20052;-69
2022/11/27 01:25:08;;;;;;;16.02;12.25;;;10.20;1.00;;;;;;5033034;28;20033;-69
2022/11/27 01:27:33;;;;;;;18.77;12.90;;;10.10;1.00;;;;;;5032779;28;20079;-69
2022/11/27 01:29:59;;;;;;;18.05;12.45;;;10.10;1.00;;;;;;5028579;28;20026;-69
2022/11/27 01:32:25;;;;;;;14.98;12.10;;;10.10;1.00;;;;;;5032915;28;20375;-69
2022/11/27 01:34:50;;;;;;;17.35;12.95;;;10.10;1.00;;;;;;5033018;28;20380;-69
2022/11/27 01:37:16;;;;;;;15.52;11.98;;;10.00;1.00;;;;;;5032417;28;20128;-70
2022/11/27 01:39:42;;;;;;;16.60;13.02;;;10.00;1.00;;;;;;5030051;28;20163;-69
2022/11/27 01:42:10;;;;;;;14.98;11.75;;;10.00;1.00;;;;;;5032714;28;20442;-69
2022/11/27 01:44:35;;;;;;;14.60;11.88;;;10.00;1.00;;;;;;5027656;28;20507;-68
2022/11/27 01:47:10;;;;;;;17.40;11.65;;;10.10;1.00;;;;;;4954303;28;1615217;-69
2022/11/27 01:49:44;;;;;;;14.73;10.90;;;10.00;1.00;;;;;;5011084;28;20034;-69
2022/11/27 01:52:20;;;;;;;16.67;11.82;;;10.00;1.00;;;;;;5011891;28;20440;-69
2022/11/27 01:55:02;;;;;;;19.08;12.50;;;9.90;1.00;;;;;;5013966;28;20388;-68
2022/11/27 01:57:32;;;;;;;14.38;11.18;;;9.90;1.00;;;;;;5013447;28;20053;-69
2022/11/27 01:59:59;;;;;;;15.48;11.38;;;9.90;1.00;;;;;;5017898;28;20363;-69
2022/11/27 02:02:25;;;;;;;14.43;12.20;;;10.00;1.00;;;;;;5019514;28;20088;-69
2022/11/27 02:04:51;;;;;;;14.43;11.02;;;10.00;1.00;;;;;;5031789;28;20017;-69
2022/11/27 02:07:17;;;;;;;13.85;11.32;;;10.00;1.00;;;;;;5025131;28;20104;-69
2022/11/27 02:09:43;;;;;;;15.48;11.82;;;10.00;1.00;;;;;;5025392;28;20116;-69
2022/11/27 02:12:14;;;;;;;13.07;11.27;;;9.90;1.00;;;;;;5026802;28;20025;-69
2022/11/27 02:14:49;;;;;;;14.32;10.20;;;9.90;1.00;;;;;;5005403;28;20104;-69
2022/11/27 02:17:21;;;;;;;16.60;11.38;;;9.90;1.00;;;;;;5032543;28;20151;-69
2022/11/27 02:19:50;;;;;;;12.73;10.00;;;9.90;1.00;;;;;;5031590;28;20021;-69
2022/11/27 02:22:37;;;;;;;13.43;10.57;;;9.90;1.00;;;;;;5024008;28;20030;-69
2022/11/27 02:25:17;;;;;;;12.52;9.95;;;9.90;1.00;;;;;;5008102;28;20562;-69
2022/11/27 02:28:08;;;;;;;12.82;9.88;;;9.90;1.00;;;;;;5018458;28;20062;-69
2022/11/27 02:37:48;;;;;;;12.10;9.82;;;9.80;1.00;;;;;;5007455;28;20084;-69
2022/11/27 02:40:19;;;;;;;11.80;9.07;;;9.80;1.00;;;;;;5002512;28;20064;-69
2022/11/27 02:42:59;;;;;;;14.57;9.70;;;9.90;1.00;;;;;;5032704;28;20395;-70
2022/11/27 02:45:34;;;;;;;13.30;10.32;;;9.80;1.00;;;;;;5017225;28;20026;-69
2022/11/27 02:48:00;;;;;;;12.77;9.32;;;9.70;1.00;;;;;;5032294;28;20144;-69
2022/11/27 02:50:29;;;;;;;12.15;8.88;;;9.80;1.00;;;;;;5032457;28;20104;-70
2022/11/27 02:53:00;;;;;;;12.85;9.25;;;9.80;1.00;;;;;;5032281;28;20469;-69
2022/11/27 02:55:30;;;;;;;13.15;9.75;;;9.80;1.00;;;;;;5022622;28;20029;-69
2022/11/27 02:57:57;;;;;;;19.17;13.45;;;9.80;1.00;;;;;;5032440;28;20056;-70
2022/11/27 03:00:23;;;;;;;20.30;15.05;;;9.70;1.00;;;;;;5029226;28;20040;-69
2022/11/27 03:02:53;;;;;;;21.50;15.90;;;9.70;1.00;;;;;;5002419;28;20033;-69
2022/11/27 03:05:22;;;;;;;22.57;17.33;;;9.60;1.00;;;;;;5021295;28;20111;-69
2022/11/27 03:07:58;;;;;;;27.15;17.63;;;9.70;1.00;;;;;;5024830;28;20029;-69
2022/11/27 03:10:50;;;;;;;22.57;17.47;;;9.70;1.00;;;;;;5012596;28;20116;-69
2022/11/27 03:13:16;;;;;;;27.43;17.70;;;9.60;1.00;;;;;;5028168;28;20024;-69
2022/11/27 03:16:01;;;;;;;30.45;18.27;;;9.70;1.00;;;;;;5032062;28;20442;-70
2022/11/27 03:18:38;;;;;;;21.27;16.67;;;9.60;1.00;;;;;;5031838;28;20025;-70
2022/11/27 03:21:28;;;;;;;24.30;16.27;;;9.60;1.00;;;;;;5022845;28;20036;-69
2022/11/27 03:23:55;;;;;;;20.83;16.95;;;9.70;1.00;;;;;;5031453;28;20055;-69
2022/11/27 03:26:21;;;;;;;20.60;15.63;;;9.60;1.00;;;;;;5031888;28;20037;-69
2022/11/27 03:28:49;;;;;;;19.65;16.15;;;9.60;1.00;;;;;;5031780;28;20025;-69
2022/11/27 03:31:15;;;;;;;17.90;14.98;;;9.60;1.00;;;;;;5030556;28;20041;-69
2022/11/27 03:33:41;;;;;;;19.43;14.83;;;9.60;1.00;;;;;;5027864;28;20029;-70
2022/11/27 03:36:14;;;;;;;16.83;12.73;;;9.60;1.00;;;;;;5020836;28;20033;-69
2022/11/27 03:38:41;;;;;;;20.20;14.43;;;9.60;1.00;;;;;;5030428;28;20205;-69
2022/11/27 03:41:21;;;;;;;20.33;15.20;;;9.60;1.00;;;;;;5031496;28;20041;-69
2022/11/27 03:44:22;;;;;;;17.70;13.50;;;9.60;1.00;;;;;;5023533;28;20373;-69
2022/11/27 03:47:20;;;;;;;17.75;13.50;;;9.60;1.00;;;;;;5007425;28;20053;-70
2022/11/27 03:50:20;;;;;;;21.10;14.70;;;9.60;1.00;;;;;;5014620;28;20033;-69
2022/11/27 03:53:05;;;;;;;18.30;14.00;;;9.70;1.00;;;;;;5026191;28;20317;-69
2022/11/27 03:55:48;;;;;;;20.23;14.25;;;9.70;1.00;;;;;;5024106;28;20135;-69
2022/11/27 03:58:34;;;;;;;17.77;14.90;;;9.60;1.00;;;;;;5031422;28;20419;-69
2022/11/27 04:01:01;;;;;;;18.83;13.05;;;9.60;1.00;;;;;;5023087;28;20026;-69
2022/11/27 04:03:29;;;;;;;18.75;14.52;;;9.60;1.00;;;;;;5020723;28;20033;-70
2022/11/27 04:05:55;;;;;;;18.30;14.68;;;9.60;1.00;;;;;;5031425;28;20021;-69
2022/11/27 04:08:22;;;;;;;20.08;14.93;;;9.60;1.00;;;;;;5013160;28;20448;-69
2022/11/27 04:10:48;;;;;;;19.25;14.50;;;9.60;1.00;;;;;;5025050;28;20033;-69
2022/11/27 04:13:14;;;;;;;16.58;13.75;;;9.50;1.00;;;;;;5031345;28;20028;-69
2022/11/27 04:15:40;;;;;;;19.88;14.65;;;9.50;1.00;;;;;;5031644;28;20087;-69
2022/11/27 04:18:06;;;;;;;19.95;14.07;;;9.50;1.00;;;;;;5016938;28;20022;-69
2022/11/27 04:20:31;;;;;;;19.97;13.83;;;9.60;1.00;;;;;;5018033;28;20026;-69
2022/11/27 04:22:57;;;;;;;20.58;14.45;;;9.60;1.00;;;;;;5031219;28;20095;-69
2022/11/27 04:25:23;;;;;;;17.53;14.43;;;9.50;1.00;;;;;;5031158;28;20473;-69
2022/11/27 04:27:49;;;;;;;17.50;15.05;;;9.60;1.00;;;;;;5023370;28;20087;-69
2022/11/27 04:30:15;;;;;;;21.48;15.23;;;9.60;1.00;;;;;;5030275;28;20063;-69
2022/11/27 04:32:41;;;;;;;18.07;14.63;;;9.50;1.00;;;;;;5031548;28;20024;-69
2022/11/27 04:35:07;;;;;;;20.33;14.57;;;9.50;1.00;;;;;;5031453;28;20025;-70
2022/11/27 04:37:33;;;;;;;19.73;15.60;;;9.50;1.00;;;;;;5030627;28;20022;-69
2022/11/27 04:39:58;;;;;;;19.90;14.55;;;9.40;1.00;;;;;;5025745;28;20032;-69
2022/11/27 04:42:24;;;;;;;19.33;15.35;;;9.50;1.00;;;;;;5031577;28;20029;-70
2022/11/27 04:44:49;;;;;;;22.90;16.55;;;9.50;1.00;;;;;;5032229;28;20055;-69
2022/11/27 04:47:15;;;;;;;20.60;15.63;;;9.50;1.00;;;;;;5034268;28;20523;-69
2022/11/27 04:49:41;;;;;;;20.92;16.60;;;9.50;1.00;;;;;;5031120;28;20117;-70
2022/11/27 04:52:07;;;;;;;22.80;16.93;;;9.50;1.00;;;;;;5032762;28;20105;-69
2022/11/27 04:54:33;;;;;;;22.05;16.40;;;9.40;1.00;;;;;;5022823;28;20057;-70
2022/11/27 04:56:58;;;;;;;21.00;16.67;;;9.40;1.00;;;;;;5034462;28;20065;-70
2022/11/27 04:59:24;;;;;;;26.95;19.05;;;9.40;1.00;;;;;;5031488;28;20116;-69
2022/11/27 05:01:49;;;;;;;23.48;17.15;;;9.30;1.00;;;;;;5034480;28;20068;-70
2022/11/27 05:04:15;;;;;;;23.50;17.13;;;9.30;1.00;;;;;;5034405;28;20108;-69
2022/11/27 05:06:41;;;;;;;25.63;18.30;;;9.30;1.00;;;;;;5034491;28;20094;-70
2022/11/27 05:09:06;;;;;;;22.95;17.30;;;9.30;1.00;;;;;;5032528;28;20068;-70
2022/11/27 05:11:32;;;;;;;25.03;17.43;;;9.40;1.00;;;;;;5034381;28;20026;-69
2022/11/27 05:14:13;;;;;;;20.03;15.80;;;9.40;1.00;;;;;;5032906;28;20479;-69
2022/11/27 05:16:40;;;;;;;22.13;17.33;;;9.40;1.00;;;;;;5022524;28;20033;-70
2022/11/27 05:19:07;;;;;;;21.30;16.90;;;9.30;1.00;;;;;;5033536;28;20383;-69
2022/11/27 05:21:33;;;;;;;23.67;16.77;;;9.30;1.00;;;;;;5002859;28;20045;-70
2022/11/27 05:23:58;;;;;;;23.77;17.43;;;9.30;1.00;;;;;;5034219;28;20029;-69
2022/11/27 05:26:24;;;;;;;23.30;16.40;;;9.30;1.00;;;;;;5033910;28;20447;-70
2022/11/27 05:28:50;;;;;;;23.27;17.27;;;9.30;1.00;;;;;;5033943;28;20026;-70
2022/11/27 05:31:15;;;;;;;21.33;15.73;;;9.30;1.00;;;;;;5021446;28;20392;-70
2022/11/27 05:33:41;;;;;;;22.07;17.00;;;9.20;1.00;;;;;;5033943;28;20018;-70
2022/11/27 05:36:07;;;;;;;19.93;15.60;;;9.20;1.00;;;;;;5033979;28;20108;-70
2022/11/27 05:38:32;;;;;;;21.63;17.17;;;9.20;1.00;;;;;;5032153;28;20041;-70
2022/11/27 05:41:04;;;;;;;20.77;16.33;;;9.20;1.00;;;;;;5024697;28;20168;-70
2022/11/27 05:43:30;;;;;;;19.17;15.43;;;9.20;1.00;;;;;;5032659;28;20035;-70
2022/11/27 05:45:55;;;;;;;17.47;15.50;;;9.20;1.00;;;;;;5033790;28;20025;-70
2022/11/27 05:48:21;;;;;;;21.60;15.37;;;9.20;1.00;;;;;;5033522;28;20109;-70
2022/11/27 05:50:46;;;;;;;19.00;14.80;;;9.30;1.00;;;;;;5033501;28;20025;-70
2022/11/27 05:53:12;;;;;;;20.20;15.07;;;9.20;1.00;;;;;;5022675;28;20021;-70
2022/11/27 05:55:37;;;;;;;19.10;15.13;;;9.20;1.00;;;;;;5024900;28;20538;-70
2022/11/27 05:58:03;;;;;;;19.57;13.90;;;9.20;1.00;;;;;;5020564;28;20030;-70
2022/11/27 06:00:29;;;;;;;20.83;15.43;;;9.20;1.00;;;;;;5031595;28;20088;-70
2022/11/27 06:02:55;;;;;;;19.27;14.30;;;9.20;1.00;;;;;;5019449;28;20056;-70
2022/11/27 06:05:20;;;;;;;16.13;13.00;;;9.20;1.00;;;;;;5033634;28;20036;-70
2022/11/27 06:07:46;;;;;;;17.67;13.33;;;9.20;1.00;;;;;;5005313;28;20109;-70
2022/11/27 06:10:12;;;;;;;24.60;14.37;;;9.20;1.00;;;;;;5026728;28;20025;-70
2022/11/27 06:12:37;;;;;;;16.63;13.70;;;9.20;1.00;;;;;;5029511;28;20313;-70
2022/11/27 06:15:03;;;;;;;19.10;14.47;;;9.20;1.00;;;;;;5032940;28;20179;-71
2022/11/27 06:17:29;;;;;;;16.33;14.25;;;9.20;1.00;;;;;;5033206;28;20025;-70
2022/11/27 06:19:54;;;;;;;19.50;14.00;;;9.30;1.00;;;;;;5033370;28;20029;-71
2022/11/27 06:22:20;;;;;;;16.30;13.80;;;9.20;1.00;;;;;;5032618;28;20415;-70
2022/11/27 06:24:58;;;;;;;17.03;13.10;;;9.30;1.00;;;;;;5032043;28;20152;-70
2022/11/27 06:27:23;;;;;;;17.00;13.13;;;9.30;1.00;;;;;;5032649;28;20480;-71
2022/11/27 06:29:49;;;;;;;15.98;13.27;;;9.30;1.00;;;;;;5032984;28;20022;-71
2022/11/27 06:32:14;;;;;;;15.77;13.33;;;9.20;1.00;;;;;;5031506;28;20188;-71
2022/11/27 06:34:40;;;;;;;17.02;13.35;;;9.20;1.00;;;;;;5032416;28;20466;-70
2022/11/27 06:37:05;;;;;;;17.70;12.67;;;9.30;1.00;;;;;;5029045;28;20034;-70
2022/11/27 06:39:31;;;;;;;16.13;11.93;;;9.30;1.00;;;;;;5026219;28;20049;-70
2022/11/27 06:41:57;;;;;;;14.80;11.13;;;9.20;1.00;;;;;;5032404;28;20033;-70
2022/11/27 06:44:22;;;;;;;14.57;10.73;;;9.20;1.00;;;;;;5032407;28;20101;-71
2022/11/27 06:46:48;;;;;;;15.87;10.73;;;9.30;1.00;;;;;;5032277;28;20046;-70
2022/11/27 06:49:13;;;;;;;14.70;10.70;;;9.20;1.00;;;;;;5032761;28;20036;-71
2022/11/27 06:51:39;;;;;;;14.00;10.20;;;9.30;1.00;;;;;;5030376;28;20439;-70
2022/11/27 06:54:05;;;;;;;14.17;10.93;;;9.20;1.00;;;;;;5007043;28;20472;-70
2022/11/27 06:56:31;;;;;;;13.57;10.40;;;9.20;1.00;;;;;;5011642;28;20381;-70
2022/11/27 06:58:58;;;;;;;13.97;10.67;;;9.30;1.00;;;;;;5019035;28;20014;-70
2022/11/27 07:01:26;;;;;;;14.63;10.45;;;9.20;1.00;;;;;;5014532;28;20041;-71
2022/11/27 07:03:52;;;;;;;14.40;10.30;;;9.30;1.00;;;;;;5024757;28;20115;-70
2022/11/27 07:06:21;;;;;;;16.25;11.38;;;9.30;1.00;;;;;;5013989;28;20061;-70
2022/11/27 07:08:47;;;;;;;13.88;10.23;;;9.30;1.00;;;;;;5029984;28;20022;-71
2022/11/27 07:11:18;;;;;;;12.37;10.47;;;9.30;1.00;;;;;;5032187;28;20061;-70
2022/11/27 07:13:45;;;;;;;14.53;10.57;;;9.20;1.00;;;;;;5025408;28;20080;-70
2022/11/27 07:16:12;;;;;;;16.53;11.83;;;9.20;1.00;;;;;;5020291;28;20380;-72
2022/11/27 07:18:53;;;;;;;17.52;13.52;;;9.30;1.00;;;;;;5032077;28;20029;-70
2022/11/27 07:21:19;;;;;;;17.13;13.17;;;9.30;1.00;;;;;;5010039;28;20033;-70
2022/11/27 07:23:45;;;;;;;18.53;14.90;;;9.30;1.00;;;;;;5031703;28;20482;-69
2022/11/27 07:26:12;;;;;;;19.60;14.07;;;9.30;1.00;;;;;;5032000;28;20144;-70
2022/11/27 07:28:38;;;;;;;17.93;13.73;;;9.30;1.00;;;;;;5031769;28;20025;-70
2022/11/27 07:31:04;;;;;;;19.50;15.90;;;9.30;1.00;;;;;;5016464;28;20026;-70
2022/11/27 07:33:31;;;;;;;24.33;16.80;;;9.40;1.00;;;;;;5022555;28;20022;-70
2022/11/27 07:36:05;;;;;;;23.45;17.75;;;9.40;1.00;;;;;;5031706;28;20028;-70
2022/11/27 07:38:31;;;;;;;23.25;16.60;;;9.40;1.00;;;;;;5031537;28;20026;-70
2022/11/27 07:41:00;;;;;;;23.35;16.95;;;9.30;1.00;;;;;;5021773;28;20038;-70
2022/11/27 07:43:26;;;;;;;23.07;18.37;;;9.30;1.00;;;;;;5031666;28;20025;-70
2022/11/27 07:45:52;;;;;;;23.57;17.40;;;9.30;1.00;;;;;;5031552;28;20459;-70
2022/11/27 07:48:18;;;;;;;20.50;16.75;;;9.30;1.00;;;;;;5031504;28;20061;-70
2022/11/27 07:50:43;;;;;;;21.43;16.83;;;9.30;1.00;;;;;;5031628;28;20072;-70
2022/11/27 07:53:09;;;;;;;19.77;16.95;;;9.30;1.00;;;;;;5031460;28;20424;-70
2022/11/27 07:55:38;;;;;;;24.10;17.67;;;9.30;1.00;;;;;;5019723;28;20530;-70
2022/11/27 07:58:03;;;;;;;23.53;18.37;;;9.30;1.00;;;;;;5025517;28;20036;-70
2022/11/27 08:00:29;;;;;;;22.40;17.43;;;9.30;1.00;;;;;;5020839;28;20108;-70
2022/11/27 08:02:54;;;;;;;23.87;18.50;;;9.20;1.00;;;;;;5030221;28;20127;-70
2022/11/27 08:05:20;;;;;;;24.90;17.97;;;9.20;1.00;;;;;;5025882;28;20046;-70
2022/11/27 08:07:45;;;;;;;23.30;17.77;;;9.30;1.00;;;;;;5023600;28;20439;-71
2022/11/27 08:10:11;;;;;;;23.57;17.67;;;9.30;1.00;;;;;;5025656;28;20025;-69
2022/11/27 08:12:37;;;;;;;24.80;17.47;;;9.30;1.00;;;;;;5030120;28;20030;-69
2022/11/27 08:15:04;;;;;;;21.98;16.77;;;9.30;1.00;;;;;;5031206;28;20029;-70
2022/11/27 08:17:30;;;;;;;23.43;17.57;;;9.30;1.00;;;;;;5031351;28;20010;-69
2022/11/27 08:19:55;;;;;;;23.37;17.73;;;9.30;1.00;;;;;;5032415;28;20348;-70
2022/11/27 08:22:21;;;;;;;24.60;18.73;;;9.30;1.00;;;;;;5033880;28;20033;-69
2022/11/27 08:24:47;;;;;;;22.08;17.17;;;9.30;1.00;;;;;;5020717;28;20026;-70
2022/11/27 08:27:15;;;;;;;23.58;16.83;;;9.40;1.00;;;;;;5031081;28;20018;-69
2022/11/27 08:29:41;;;;;;;19.73;17.57;;;9.40;1.00;;;;;;5035409;28;20025;-70
2022/11/27 08:32:07;;;;;;;23.20;18.00;;;9.40;1.00;;;;;;5035059;28;20443;-70
2022/11/27 08:34:32;;;;;;;23.90;19.73;;;9.40;1.00;;;;;;5035292;28;20017;-70
2022/11/27 08:36:58;;;;;;;23.77;19.17;;;9.40;1.00;;;;;;5028588;28;20025;-70
2022/11/27 08:39:25;;;;;;;22.48;18.30;;;9.50;1.00;;;;;;5021175;28;20018;-71
2022/11/27 08:41:51;;;;;;;25.60;19.50;;;9.50;1.00;;;;;;5034875;28;20036;-70
2022/11/27 08:44:17;;;;;;;25.80;20.13;;;9.50;1.00;;;;;;5034701;28;20205;-70
2022/11/27 08:46:43;;;;;;;23.57;19.67;;;9.50;1.00;;;;;;5020601;28;20068;-70
2022/11/27 08:49:08;;;;;;;23.37;19.83;;;9.60;1.00;;;;;;5030832;28;20034;-70
2022/11/27 08:51:35;;;;;;;27.20;20.73;;;9.60;1.00;;;;;;5030340;28;20112;-70
2022/11/27 08:54:00;;;;;;;22.90;19.53;;;9.60;1.00;;;;;;5022839;28;20026;-70
2022/11/27 08:56:26;;;;;;;23.13;19.93;;;9.60;1.00;;;;;;5032565;28;20171;-70
2022/11/27 08:58:52;;;;;;;25.87;20.33;;;9.60;1.00;;;;;;5034308;28;20040;-70
2022/11/27 09:01:27;;;;;;;24.50;19.63;;;9.70;1.00;;;;;;5031669;28;20033;-70
2022/11/27 09:03:52;;;;;;;;;;;9.70;1.00;;;;;;5035089;28;20022;-65
2022/11/27 09:06:21;;;;;;;24.70;18.73;;;9.70;1.00;;;;;;5021198;28;19932;-66
2022/11/27 09:08:47;;;;;;;21.40;18.80;;;9.80;1.00;;;;;;5006842;28;20033;-71
2022/11/27 09:11:15;;;;;;;20.85;18.65;;;9.80;1.00;;;;;;5034426;28;20045;-71
2022/11/27 09:13:41;;;;;;;22.63;16.90;;;9.80;1.00;;;;;;5034162;28;20026;-71
2022/11/27 09:16:10;;;;;;;34.75;23.85;;;9.80;1.00;;;;;;5026307;28;20060;-71
2022/11/27 09:18:36;;;;;;;21.20;16.35;;;9.90;1.00;;;;;;5034498;28;20057;-71
2022/11/27 09:21:07;;;;;;;17.65;14.05;;;9.90;1.00;;;;;;5034061;28;20467;-71
2022/11/27 09:23:33;;;;;;;15.65;11.63;;;9.90;1.00;;;;;;5033859;28;20116;-70
2022/11/27 09:26:00;;;;;;;18.48;13.95;;;9.90;1.00;;;;;;5034184;28;20057;-71
2022/11/27 09:28:25;;;;;;;16.38;13.57;;;10.00;1.00;;;;;;5032395;28;20418;-70
2022/11/27 09:30:55;;;;;;;13.40;11.88;;;10.00;1.00;;;;;;5033620;28;20022;-69
2022/11/27 09:33:22;;;;;;;13.13;11.18;;;9.90;1.00;;;;;;5034075;28;20025;-71
2022/11/27 09:35:47;;;;;;;12.88;10.30;;;10.00;1.00;;;;;;5033805;28;20108;-73
2022/11/27 09:38:13;;;;;;;11.50;9.00;;;10.00;1.00;;;;;;5023034;28;20050;-73
2022/11/27 09:40:46;;;;;;;10.35;9.13;;;10.10;1.00;;;;;;5030539;28;20435;-73
2022/11/27 09:43:12;;;;;;;10.82;9.30;;;10.10;1.00;;;;;;5033703;28;20411;-73
2022/11/27 09:45:47;;;;;;;12.95;10.80;;;10.10;1.00;;;;;;5033905;28;20018;-73
2022/11/27 09:48:21;;;;;;;;;;;10.20;1.00;;;;;;5026615;28;20064;-73
2022/11/27 09:50:49;;;;;;;12.57;10.55;;;10.20;1.00;;;;;;5024866;28;19908;-73
2022/11/27 09:53:42;;;;;;;14.50;11.55;;;10.10;1.00;;;;;;5018121;28;20032;-73
2022/11/27 09:56:11;;;;;;;13.98;11.25;;;10.20;1.00;;;;;;5033506;28;20486;-73
2022/11/27 09:58:39;;;;;;;16.80;14.55;;;10.20;1.00;;;;;;5026078;28;20264;-73
2022/11/27 10:01:17;;;;;;;13.75;11.15;;;10.20;1.00;;;;;;5030034;28;20029;-73
2022/11/27 10:03:44;;;;;;;13.20;11.15;;;10.30;1.00;;;;;;5032096;28;20163;-73
2022/11/27 10:06:09;;;;;;;11.10;9.10;;;10.30;1.00;;;;;;5021153;28;20101;-73
2022/11/27 10:08:40;;;;;;;11.43;9.13;;;10.30;1.00;;;;;;5031965;28;20184;-73
2022/11/27 10:11:23;;;;;;;11.65;9.20;;;10.30;1.00;;;;;;5033427;28;20430;-73
2022/11/27 10:14:06;;;;;;;10.68;9.63;;;10.40;1.00;;;;;;5027078;28;20026;-72
2022/11/27 10:16:37;;;;;;;11.25;9.10;;;10.40;1.00;;;;;;5033320;28;20483;-73
2022/11/27 10:19:35;;;;;;;13.80;10.18;;;10.40;1.00;;;;;;5033599;28;20417;-73
2022/11/27 10:22:17;;;;;;;14.43;10.38;;;10.50;1.00;;;;;;5032795;28;20395;-73
2022/11/27 10:25:06;;;;;;;11.43;9.27;;;10.50;1.00;;;;;;5032993;28;20483;-73
2022/11/27 10:27:42;;;;;;;11.63;9.82;;;10.60;1.00;;;;;;5033340;28;20360;-73
2022/11/27 10:30:16;;;;;;;13.85;10.98;;;10.60;1.00;;;;;;5031442;28;20053;-72
2022/11/27 10:32:45;;;;;;;16.08;12.30;;;10.60;1.00;;;;;;5007343;28;20031;-72
2022/11/27 10:35:41;;;;;;;18.02;14.05;;;10.70;1.00;;;;;;5031013;28;20022;-73
2022/11/27 10:38:15;;;;;;;14.98;12.50;;;10.70;1.00;;;;;;5008205;28;20045;-73
2022/11/27 10:41:16;;;;;;;14.23;12.75;;;10.60;1.00;;;;;;5032875;28;20467;-73
2022/11/27 10:43:41;;;;;;;18.63;14.90;;;10.60;1.00;;;;;;5012546;28;20057;-72
2022/11/27 10:46:15;;;;;;;17.40;14.52;;;10.70;1.00;;;;;;5028498;28;20022;-71
2022/11/27 10:48:41;;;;;;;18.38;14.35;;;10.70;1.00;;;;;;5025412;28;20364;-72
2022/11/27 10:51:17;;;;;;;17.77;15.43;;;10.80;1.00;;;;;;5019850;28;20018;-72
2022/11/27 10:53:46;;;;;;;16.52;14.55;;;10.80;1.00;;;;;;5005145;28;20084;-72
2022/11/27 10:56:13;;;;;;;15.93;13.32;;;10.90;1.00;;;;;;5032157;28;20511;-72
2022/11/27 10:59:14;;;;;;;15.50;13.30;;;10.90;1.00;;;;;;5017445;28;20032;-72
2022/11/27 11:01:43;;;;;;;14.35;12.63;;;10.80;1.00;;;;;;5025840;28;20045;-72
2022/11/27 11:04:11;;;;;;;14.07;12.63;;;10.90;1.00;;;;;;5020800;28;20024;-73
2022/11/27 11:06:42;;;;;;;17.15;13.80;;;10.90;1.00;;;;;;5018421;28;20100;-73
2022/11/27 11:09:19;;;;;;;15.02;12.38;;;11.00;1.00;;;;;;5031019;28;20029;-73
2022/11/27 11:11:45;;;;;;;14.80;11.98;;;11.00;1.00;;;;;;5022315;28;20038;-73
2022/11/27 11:14:22;;;;;;;13.68;12.23;;;11.00;1.00;;;;;;5027722;28;20102;-73
2022/11/27 11:16:50;;;;;;;12.68;9.80;;;11.00;1.00;;;;;;5031014;28;20463;-73
2022/11/27 11:19:34;;;;;;;14.15;10.70;;;11.10;1.00;;;;;;5032190;28;20128;-73
2022/11/27 11:22:09;;;;;;;12.27;9.63;;;11.10;1.00;;;;;;5021739;28;20026;-73
2022/11/27 11:24:38;;;;;;;10.48;8.88;;;11.10;1.00;;;;;;5032356;28;20034;-73
2022/11/27 11:27:13;;;;;;;10.52;9.32;;;11.10;1.00;;;;;;5030607;28;20078;-73
2022/11/27 11:29:40;;;;;;;10.68;9.35;;;11.10;1.00;;;;;;5032049;28;20028;-73
2022/11/27 11:32:18;;;;;;;12.07;9.45;;;11.20;1.00;;;;;;5031993;28;20025;-73
2022/11/27 11:34:52;;;;;;;15.18;12.38;;;11.20;1.00;;;;;;5021958;28;20022;-73
2022/11/27 11:37:26;;;;;;;12.40;11.10;;;11.20;1.00;;;;;;5028877;28;20021;-73
2022/11/27 11:40:12;;;;;;;12.35;10.55;;;11.20;1.00;;;;;;5029463;28;20163;-73
2022/11/27 11:43:04;;;;;;;13.57;12.18;;;11.30;1.00;;;;;;5022803;28;20030;-72
2022/11/27 11:45:31;;;;;;;17.10;12.45;;;11.30;1.00;;;;;;5023135;28;20148;-72
2022/11/27 11:48:17;;;;;;;12.63;10.43;;;11.30;1.00;;;;;;5009664;28;20403;-72
2022/11/27 11:50:52;;;;;;;12.57;11.00;;;11.30;1.00;;;;;;5009378;28;20452;-72
2022/11/27 11:53:24;;;;;;;;;;;11.30;1.00;;;;;;5011199;28;20026;-72
2022/11/27 11:56:22;;;;;;;11.52;10.40;;;11.20;1.00;;;;;;5015261;28;20373;-72
2022/11/27 11:58:53;;;;;;;13.73;10.23;;;11.30;1.00;;;;;;5015739;28;20534;-72
2022/11/27 12:01:56;;;;;;;14.30;11.13;;;11.30;1.00;;;;;;5024063;28;20033;-72
2022/11/27 12:04:34;;;;;;;14.27;12.20;;;11.40;1.00;;;;;;5015805;28;20041;-72
2022/11/27 12:07:18;;;;;;;15.02;12.60;;;11.40;1.00;;;;;;5034230;28;20032;-72
2022/11/27 12:09:50;;;;;;;13.75;12.30;;;11.40;1.00;;;;;;5035632;28;20017;-73
2022/11/27 12:12:54;;;;;;;16.33;13.82;;;11.40;1.00;;;;;;5021425;28;20029;-72
2022/11/27 12:15:43;;;;;;;15.65;12.18;;;11.50;1.00;;;;;;4992034;28;20034;-72
2022/11/27 12:18:24;;;;;;;13.13;10.88;;;11.40;1.00;;;;;;5033984;28;20051;-72
2022/11/27 12:20:52;;;;;;;10.93;9.77;;;11.40;1.00;;;;;;5035410;28;20021;-72
2022/11/27 12:23:48;;;;;;;13.95;11.70;;;11.50;1.00;;;;;;5035517;28;20025;-72
2022/11/27 12:26:13;;;;;;;;;;;11.50;1.00;;;;;;5035926;28;20022;-72
2022/11/27 12:29:01;;;;;;;10.50;9.48;;;11.50;1.00;;;;;;5022232;28;19906;-72
2022/11/27 12:31:50;;;;;;;12.30;10.05;;;11.50;1.00;;;;;;5011739;28;20139;-72
2022/11/27 12:34:38;;;;;;;14.05;10.98;;;11.50;1.00;;;;;;5035321;28;20026;-73
2022/11/27 12:37:12;;;;;;;11.23;10.02;;;11.50;1.00;;;;;;5035226;28;20022;-73
2022/11/27 12:39:58;;;;;;;12.48;10.57;;;11.60;1.00;;;;;;5034890;28;20022;-73
2022/11/27 12:42:31;;;;;;;11.88;10.50;;;11.70;1.00;;;;;;5025382;28;20038;-72
2022/11/27 12:45:11;;;;;;;12.75;9.73;;;11.70;1.00;;;;;;5034795;28;20017;-72
2022/11/27 12:47:41;;;;;;;11.15;9.70;;;11.70;1.00;;;;;;5034788;28;20053;-73
2022/11/27 12:50:22;;;;;;;11.00;9.82;;;11.60;1.00;;;;;;5033628;28;20026;-73
2022/11/27 12:52:57;;;;;;;9.90;8.90;;;11.70;1.00;;;;;;5032944;28;20446;-72
2022/11/27 12:55:27;;;;;;;10.85;9.68;;;11.70;1.00;;;;;;5024101;28;20423;-72
2022/11/27 12:58:03;;;;;;;14.70;11.15;;;11.80;1.00;;;;;;5020234;28;20029;-72
2022/11/27 13:00:31;;;;;;;11.68;10.45;;;11.80;1.00;;;;;;5035004;28;20056;-71
2022/11/27 13:02:59;;;;;;;23.77;18.98;;;11.80;1.00;;;;;;5020489;28;20049;-72
2022/11/27 13:05:31;;;;;;;11.57;10.48;;;11.90;1.00;;;;;;5033857;28;20067;-71
2022/11/27 13:08:01;;;;;;;10.93;7.85;;;11.90;1.00;;;;;;5034748;28;20108;-71
2022/11/27 13:10:34;;;;;;;10.27;7.75;;;11.80;1.00;;;;;;5034820;28;20018;-71
2022/11/27 13:13:11;;;;;;;9.90;8.20;;;11.90;1.00;;;;;;5028790;28;20060;-70